sensor_id;sensor_type;location;lat;lon;timestamp;P1;durP1;ratioP1;P2;durP2;ratioP2
21894;SDS011;11112;51.270;7.224;2022-11-09T00:00:23;4.40;;;1.20;;
21894;SDS011;11112;51.270;7.224;2022-11-09T00:02:53;2.63;;;1.05;;
21894;SDS011;11112;51.270;7.224;2022-11-09T00:05:21;2.15;;;0.90;;
21894;SDS011;11112;51.270;7.224;2022-11-09T00:07:48;1.77;;;0.80;;
21894;SDS011;11112;51.270;7.224;2022-11-09T00:10:16;3.40;;;1.10;;
21894;SDS011;11112;51.270;7.224;2022-11-09T00:12:43;3.25;;;1.00;;
21894;SDS011;11112;51.270;7.224;2022-11-09T00:15:12;3.13;;;1.08;;
21894;SDS011;11112;51.270;7.224;2022-11-09T00:17:39;3.15;;;1.00;;
21894;SDS011;11112;51.270;7.224;2022-11-09T00:20:11;3.42;;;1.10;;
21894;SDS011;11112;51.270;7.224;2022-11-09T00:22:42;2.05;;;1.10;;
21894;SDS011;11112;51.270;7.224;2022-11-09T00:25:15;3.95;;;1.00;;
21894;SDS011;11112;51.270;7.224;2022-11-09T00:27:43;2.75;;;1.00;;
21894;SDS011;11112;51.270;7.224;2022-11-09T00:30:10;3.47;;;0.90;;
21894;SDS011;11112;51.270;7.224;2022-11-09T00:32:40;3.05;;;1.10;;
21894;SDS011;11112;51.270;7.224;2022-11-09T00:35:09;3.85;;;0.85;;
21894;SDS011;11112;51.270;7.224;2022-11-09T00:37:36;4.82;;;1.20;;
21894;SDS011;11112;51.270;7.224;2022-11-09T00:40:05;3.22;;;1.10;;
21894;SDS011;11112;51.270;7.224;2022-11-09T00:42:35;3.50;;;1.05;;
21894;SDS011;11112;51.270;7.224;2022-11-09T00:45:03;3.28;;;1.17;;
21894;SDS011;11112;51.270;7.224;2022-11-09T00:47:34;3.55;;;0.77;;
21894;SDS011;11112;51.270;7.224;2022-11-09T00:50:01;3.75;;;1.00;;
21894;SDS011;11112;51.270;7.224;2022-11-09T00:52:30;1.92;;;0.90;;
21894;SDS011;11112;51.270;7.224;2022-11-09T00:54:57;4.30;;;0.98;;
21894;SDS011;11112;51.270;7.224;2022-11-09T00:57:25;3.38;;;1.10;;
21894;SDS011;11112;51.270;7.224;2022-11-09T00:59:53;1.92;;;1.00;;
21894;SDS011;11112;51.270;7.224;2022-11-09T01:02:21;2.35;;;1.10;;
21894;SDS011;11112;51.270;7.224;2022-11-09T01:04:50;3.83;;;1.00;;
21894;SDS011;11112;51.270;7.224;2022-11-09T01:07:18;2.25;;;1.00;;
21894;SDS011;11112;51.270;7.224;2022-11-09T01:09:46;2.38;;;0.88;;
21894;SDS011;11112;51.270;7.224;2022-11-09T01:12:14;2.58;;;1.08;;
21894;SDS011;11112;51.270;7.224;2022-11-09T01:14:44;3.08;;;1.27;;
21894;SDS011;11112;51.270;7.224;2022-11-09T01:17:12;2.80;;;1.15;;
21894;SDS011;11112;51.270;7.224;2022-11-09T01:19:40;4.20;;;1.20;;
21894;SDS011;11112;51.270;7.224;2022-11-09T01:22:10;3.53;;;1.10;;
21894;SDS011;11112;51.270;7.224;2022-11-09T01:24:37;3.88;;;1.08;;
21894;SDS011;11112;51.270;7.224;2022-11-09T01:27:04;3.33;;;1.10;;
21894;SDS011;11112;51.270;7.224;2022-11-09T01:29:32;3.40;;;0.95;;
21894;SDS011;11112;51.270;7.224;2022-11-09T01:31:59;3.92;;;1.05;;
21894;SDS011;11112;51.270;7.224;2022-11-09T01:34:28;2.20;;;1.00;;
21894;SDS011;11112;51.270;7.224;2022-11-09T01:36:55;1.90;;;1.00;;
21894;SDS011;11112;51.270;7.224;2022-11-09T01:39:24;3.83;;;1.08;;
21894;SDS011;11112;51.270;7.224;2022-11-09T01:41:52;4.65;;;1.20;;
21894;SDS011;11112;51.270;7.224;2022-11-09T01:44:19;2.90;;;1.15;;
21894;SDS011;11112;51.270;7.224;2022-11-09T01:46:53;5.75;;;1.20;;
21894;SDS011;11112;51.270;7.224;2022-11-09T01:49:30;3.90;;;1.10;;
21894;SDS011;11112;51.270;7.224;2022-11-09T01:52:06;2.85;;;1.00;;
21894;SDS011;11112;51.270;7.224;2022-11-09T01:54:41;2.97;;;1.10;;
21894;SDS011;11112;51.270;7.224;2022-11-09T01:57:13;2.88;;;1.10;;
21894;SDS011;11112;51.270;7.224;2022-11-09T01:59:46;2.78;;;1.00;;
21894;SDS011;11112;51.270;7.224;2022-11-09T02:02:16;3.30;;;1.00;;
21894;SDS011;11112;51.270;7.224;2022-11-09T02:04:46;3.50;;;0.88;;
21894;SDS011;11112;51.270;7.224;2022-11-09T02:07:19;3.33;;;1.00;;
21894;SDS011;11112;51.270;7.224;2022-11-09T02:09:50;4.32;;;1.30;;
21894;SDS011;11112;51.270;7.224;2022-11-09T02:12:23;3.67;;;0.90;;
21894;SDS011;11112;51.270;7.224;2022-11-09T02:14:53;4.63;;;1.23;;
21894;SDS011;11112;51.270;7.224;2022-11-09T02:17:22;5.38;;;1.30;;
21894;SDS011;11112;51.270;7.224;2022-11-09T02:19:55;2.70;;;1.15;;
21894;SDS011;11112;51.270;7.224;2022-11-09T02:22:25;3.20;;;1.00;;
21894;SDS011;11112;51.270;7.224;2022-11-09T02:24:53;3.53;;;1.10;;
21894;SDS011;11112;51.270;7.224;2022-11-09T02:27:21;2.80;;;1.35;;
21894;SDS011;11112;51.270;7.224;2022-11-09T02:29:49;3.00;;;1.10;;
21894;SDS011;11112;51.270;7.224;2022-11-09T02:32:17;3.55;;;1.10;;
21894;SDS011;11112;51.270;7.224;2022-11-09T02:34:47;3.47;;;1.00;;
21894;SDS011;11112;51.270;7.224;2022-11-09T02:37:24;3.17;;;1.05;;
21894;SDS011;11112;51.270;7.224;2022-11-09T02:39:54;3.25;;;1.00;;
21894;SDS011;11112;51.270;7.224;2022-11-09T02:42:24;3.35;;;1.20;;
21894;SDS011;11112;51.270;7.224;2022-11-09T02:44:53;3.28;;;1.13;;
21894;SDS011;11112;51.270;7.224;2022-11-09T02:47:25;3.08;;;1.00;;
21894;SDS011;11112;51.270;7.224;2022-11-09T02:49:52;2.97;;;0.93;;
21894;SDS011;11112;51.270;7.224;2022-11-09T02:52:21;3.80;;;1.00;;
21894;SDS011;11112;51.270;7.224;2022-11-09T02:54:51;3.28;;;0.90;;
21894;SDS011;11112;51.270;7.224;2022-11-09T02:57:18;3.92;;;1.10;;
21894;SDS011;11112;51.270;7.224;2022-11-09T02:59:47;3.42;;;0.90;;
21894;SDS011;11112;51.270;7.224;2022-11-09T03:02:16;3.03;;;1.00;;
21894;SDS011;11112;51.270;7.224;2022-11-09T03:04:44;3.55;;;1.00;;
21894;SDS011;11112;51.270;7.224;2022-11-09T03:07:11;2.55;;;1.00;;
21894;SDS011;11112;51.270;7.224;2022-11-09T03:09:39;3.10;;;1.08;;
21894;SDS011;11112;51.270;7.224;2022-11-09T03:12:08;3.83;;;0.75;;
21894;SDS011;11112;51.270;7.224;2022-11-09T03:14:53;3.30;;;1.10;;
21894;SDS011;11112;51.270;7.224;2022-11-09T03:17:20;2.85;;;1.10;;
21894;SDS011;11112;51.270;7.224;2022-11-09T03:19:47;3.58;;;1.00;;
21894;SDS011;11112;51.270;7.224;2022-11-09T03:22:14;3.40;;;1.10;;
21894;SDS011;11112;51.270;7.224;2022-11-09T03:24:42;5.53;;;1.33;;
21894;SDS011;11112;51.270;7.224;2022-11-09T03:27:11;3.92;;;1.00;;
21894;SDS011;11112;51.270;7.224;2022-11-09T03:29:39;6.40;;;1.10;;
21894;SDS011;11112;51.270;7.224;2022-11-09T03:32:06;2.65;;;1.08;;
21894;SDS011;11112;51.270;7.224;2022-11-09T03:34:33;3.92;;;1.10;;
21894;SDS011;11112;51.270;7.224;2022-11-09T03:37:01;3.08;;;0.90;;
21894;SDS011;11112;51.270;7.224;2022-11-09T03:39:29;6.00;;;1.20;;
21894;SDS011;11112;51.270;7.224;2022-11-09T03:41:57;2.53;;;1.02;;
21894;SDS011;11112;51.270;7.224;2022-11-09T03:44:26;4.47;;;0.95;;
21894;SDS011;11112;51.270;7.224;2022-11-09T03:46:54;3.95;;;1.13;;
21894;SDS011;11112;51.270;7.224;2022-11-09T03:49:21;2.75;;;0.90;;
21894;SDS011;11112;51.270;7.224;2022-11-09T03:51:50;4.38;;;1.20;;
21894;SDS011;11112;51.270;7.224;2022-11-09T03:54:21;3.65;;;1.10;;
21894;SDS011;11112;51.270;7.224;2022-11-09T03:56:48;4.38;;;1.10;;
21894;SDS011;11112;51.270;7.224;2022-11-09T03:59:16;5.10;;;1.13;;
21894;SDS011;11112;51.270;7.224;2022-11-09T04:01:49;3.38;;;1.10;;
21894;SDS011;11112;51.270;7.224;2022-11-09T04:04:16;2.38;;;0.95;;
21894;SDS011;11112;51.270;7.224;2022-11-09T04:06:47;3.35;;;1.10;;
21894;SDS011;11112;51.270;7.224;2022-11-09T04:09:14;3.35;;;1.05;;
21894;SDS011;11112;51.270;7.224;2022-11-09T04:11:43;4.43;;;1.00;;
21894;SDS011;11112;51.270;7.224;2022-11-09T04:14:11;2.78;;;0.98;;
21894;SDS011;11112;51.270;7.224;2022-11-09T04:16:38;4.07;;;1.00;;
21894;SDS011;11112;51.270;7.224;2022-11-09T04:19:07;4.85;;;0.90;;
21894;SDS011;11112;51.270;7.224;2022-11-09T04:21:34;4.93;;;1.10;;
21894;SDS011;11112;51.270;7.224;2022-11-09T04:24:03;4.30;;;1.25;;
21894;SDS011;11112;51.270;7.224;2022-11-09T04:26:31;2.58;;;1.00;;
21894;SDS011;11112;51.270;7.224;2022-11-09T04:28:58;5.30;;;1.20;;
21894;SDS011;11112;51.270;7.224;2022-11-09T04:31:25;1.95;;;1.00;;
21894;SDS011;11112;51.270;7.224;2022-11-09T04:33:55;4.00;;;1.10;;
21894;SDS011;11112;51.270;7.224;2022-11-09T04:36:25;2.63;;;0.93;;
21894;SDS011;11112;51.270;7.224;2022-11-09T04:38:52;3.67;;;1.13;;
21894;SDS011;11112;51.270;7.224;2022-11-09T04:41:20;2.90;;;0.90;;
21894;SDS011;11112;51.270;7.224;2022-11-09T04:43:47;5.43;;;1.30;;
21894;SDS011;11112;51.270;7.224;2022-11-09T04:46:14;5.38;;;0.93;;
21894;SDS011;11112;51.270;7.224;2022-11-09T04:48:42;3.92;;;1.00;;
21894;SDS011;11112;51.270;7.224;2022-11-09T04:51:10;3.80;;;1.10;;
21894;SDS011;11112;51.270;7.224;2022-11-09T04:53:39;3.15;;;0.90;;
21894;SDS011;11112;51.270;7.224;2022-11-09T04:56:07;3.03;;;1.00;;
21894;SDS011;11112;51.270;7.224;2022-11-09T04:58:48;2.53;;;0.88;;
21894;SDS011;11112;51.270;7.224;2022-11-09T05:01:17;3.92;;;1.00;;
21894;SDS011;11112;51.270;7.224;2022-11-09T05:03:45;3.53;;;1.05;;
21894;SDS011;11112;51.270;7.224;2022-11-09T05:06:19;5.07;;;1.05;;
21894;SDS011;11112;51.270;7.224;2022-11-09T05:09:00;4.07;;;0.98;;
21894;SDS011;11112;51.270;7.224;2022-11-09T05:11:30;2.97;;;0.88;;
21894;SDS011;11112;51.270;7.224;2022-11-09T05:14:00;3.08;;;0.98;;
21894;SDS011;11112;51.270;7.224;2022-11-09T05:16:29;5.25;;;1.27;;
21894;SDS011;11112;51.270;7.224;2022-11-09T05:18:56;3.30;;;0.95;;
21894;SDS011;11112;51.270;7.224;2022-11-09T05:21:24;3.60;;;1.00;;
21894;SDS011;11112;51.270;7.224;2022-11-09T05:23:51;4.40;;;1.08;;
21894;SDS011;11112;51.270;7.224;2022-11-09T05:26:26;4.47;;;1.25;;
21894;SDS011;11112;51.270;7.224;2022-11-09T05:28:55;5.30;;;1.20;;
21894;SDS011;11112;51.270;7.224;2022-11-09T05:31:23;8.07;;;1.42;;
21894;SDS011;11112;51.270;7.224;2022-11-09T05:33:52;5.63;;;1.20;;
21894;SDS011;11112;51.270;7.224;2022-11-09T05:36:20;2.75;;;1.10;;
21894;SDS011;11112;51.270;7.224;2022-11-09T05:38:48;3.70;;;1.13;;
21894;SDS011;11112;51.270;7.224;2022-11-09T05:41:16;5.57;;;1.42;;
21894;SDS011;11112;51.270;7.224;2022-11-09T05:43:46;6.50;;;1.45;;
21894;SDS011;11112;51.270;7.224;2022-11-09T05:46:14;5.72;;;1.20;;
21894;SDS011;11112;51.270;7.224;2022-11-09T05:48:44;8.30;;;1.38;;
21894;SDS011;11112;51.270;7.224;2022-11-09T05:51:13;5.53;;;1.25;;
21894;SDS011;11112;51.270;7.224;2022-11-09T05:53:42;6.60;;;1.20;;
21894;SDS011;11112;51.270;7.224;2022-11-09T05:56:10;5.80;;;1.10;;
21894;SDS011;11112;51.270;7.224;2022-11-09T05:58:41;5.53;;;1.05;;
21894;SDS011;11112;51.270;7.224;2022-11-09T06:01:11;5.65;;;1.20;;
21894;SDS011;11112;51.270;7.224;2022-11-09T06:03:45;8.02;;;1.27;;
21894;SDS011;11112;51.270;7.224;2022-11-09T06:06:14;5.82;;;1.20;;
21894;SDS011;11112;51.270;7.224;2022-11-09T06:08:45;6.60;;;1.08;;
21894;SDS011;11112;51.270;7.224;2022-11-09T06:11:14;6.53;;;1.17;;
21894;SDS011;11112;51.270;7.224;2022-11-09T06:13:42;5.95;;;1.20;;
21894;SDS011;11112;51.270;7.224;2022-11-09T06:16:11;5.05;;;1.08;;
21894;SDS011;11112;51.270;7.224;2022-11-09T06:18:38;6.80;;;1.25;;
21894;SDS011;11112;51.270;7.224;2022-11-09T06:21:07;6.43;;;1.20;;
21894;SDS011;11112;51.270;7.224;2022-11-09T06:23:35;4.22;;;1.10;;
21894;SDS011;11112;51.270;7.224;2022-11-09T06:26:04;4.80;;;1.15;;
21894;SDS011;11112;51.270;7.224;2022-11-09T06:28:38;6.38;;;1.17;;
21894;SDS011;11112;51.270;7.224;2022-11-09T06:31:07;6.40;;;1.45;;
21894;SDS011;11112;51.270;7.224;2022-11-09T06:33:41;6.57;;;1.40;;
21894;SDS011;11112;51.270;7.224;2022-11-09T06:36:08;7.38;;;1.48;;
21894;SDS011;11112;51.270;7.224;2022-11-09T06:38:37;6.05;;;1.40;;
21894;SDS011;11112;51.270;7.224;2022-11-09T06:41:04;4.45;;;1.10;;
21894;SDS011;11112;51.270;7.224;2022-11-09T06:43:32;6.10;;;1.20;;
21894;SDS011;11112;51.270;7.224;2022-11-09T06:46:04;5.70;;;1.15;;
21894;SDS011;11112;51.270;7.224;2022-11-09T06:48:36;4.40;;;0.88;;
21894;SDS011;11112;51.270;7.224;2022-11-09T06:51:05;3.72;;;0.82;;
21894;SDS011;11112;51.270;7.224;2022-11-09T06:53:35;3.78;;;1.10;;
21894;SDS011;11112;51.270;7.224;2022-11-09T06:56:05;2.95;;;0.80;;
21894;SDS011;11112;51.270;7.224;2022-11-09T06:58:34;7.07;;;0.70;;
21894;SDS011;11112;51.270;7.224;2022-11-09T07:01:06;3.95;;;0.90;;
21894;SDS011;11112;51.270;7.224;2022-11-09T07:06:06;4.30;;;0.80;;
21894;SDS011;11112;51.270;7.224;2022-11-09T07:08:36;3.45;;;0.80;;
21894;SDS011;11112;51.270;7.224;2022-11-09T07:11:05;4.65;;;0.90;;
21894;SDS011;11112;51.270;7.224;2022-11-09T07:13:35;5.95;;;1.08;;
21894;SDS011;11112;51.270;7.224;2022-11-09T07:16:02;5.93;;;1.20;;
21894;SDS011;11112;51.270;7.224;2022-11-09T07:18:31;4.40;;;1.10;;
21894;SDS011;11112;51.270;7.224;2022-11-09T07:21:00;3.95;;;1.10;;
21894;SDS011;11112;51.270;7.224;2022-11-09T07:23:30;4.43;;;1.00;;
21894;SDS011;11112;51.270;7.224;2022-11-09T07:26:01;6.40;;;1.20;;
21894;SDS011;11112;51.270;7.224;2022-11-09T07:28:29;5.88;;;1.13;;
21894;SDS011;11112;51.270;7.224;2022-11-09T07:30:57;3.10;;;0.95;;
21894;SDS011;11112;51.270;7.224;2022-11-09T07:33:25;4.07;;;1.05;;
21894;SDS011;11112;51.270;7.224;2022-11-09T07:35:56;5.72;;;1.20;;
21894;SDS011;11112;51.270;7.224;2022-11-09T07:38:25;5.50;;;1.42;;
21894;SDS011;11112;51.270;7.224;2022-11-09T07:40:56;5.57;;;1.13;;
21894;SDS011;11112;51.270;7.224;2022-11-09T07:43:27;6.70;;;1.00;;
21894;SDS011;11112;51.270;7.224;2022-11-09T07:45:57;5.88;;;1.05;;
21894;SDS011;11112;51.270;7.224;2022-11-09T07:48:24;4.00;;;1.00;;
21894;SDS011;11112;51.270;7.224;2022-11-09T07:50:52;6.13;;;1.02;;
21894;SDS011;11112;51.270;7.224;2022-11-09T07:53:21;4.75;;;0.98;;
21894;SDS011;11112;51.270;7.224;2022-11-09T07:55:56;3.92;;;1.02;;
21894;SDS011;11112;51.270;7.224;2022-11-09T07:58:25;3.25;;;0.88;;
21894;SDS011;11112;51.270;7.224;2022-11-09T08:00:54;5.25;;;1.02;;
21894;SDS011;11112;51.270;7.224;2022-11-09T08:03:23;3.42;;;0.90;;
21894;SDS011;11112;51.270;7.224;2022-11-09T08:05:50;5.22;;;0.80;;
21894;SDS011;11112;51.270;7.224;2022-11-09T08:08:18;3.50;;;0.85;;
21894;SDS011;11112;51.270;7.224;2022-11-09T08:10:46;5.50;;;1.10;;
21894;SDS011;11112;51.270;7.224;2022-11-09T08:13:18;5.43;;;1.10;;
21894;SDS011;11112;51.270;7.224;2022-11-09T08:15:46;3.40;;;0.98;;
21894;SDS011;11112;51.270;7.224;2022-11-09T08:18:14;4.78;;;0.95;;
21894;SDS011;11112;51.270;7.224;2022-11-09T08:20:44;3.80;;;0.98;;
21894;SDS011;11112;51.270;7.224;2022-11-09T08:23:14;4.05;;;1.00;;
21894;SDS011;11112;51.270;7.224;2022-11-09T08:25:48;5.15;;;1.25;;
21894;SDS011;11112;51.270;7.224;2022-11-09T08:28:15;7.20;;;1.25;;
21894;SDS011;11112;51.270;7.224;2022-11-09T08:30:44;5.57;;;1.20;;
21894;SDS011;11112;51.270;7.224;2022-11-09T08:33:22;4.32;;;1.23;;
21894;SDS011;11112;51.270;7.224;2022-11-09T08:35:49;4.97;;;1.30;;
21894;SDS011;11112;51.270;7.224;2022-11-09T08:38:17;4.97;;;1.70;;
21894;SDS011;11112;51.270;7.224;2022-11-09T08:40:45;5.30;;;1.48;;
21894;SDS011;11112;51.270;7.224;2022-11-09T08:43:13;5.75;;;1.50;;
21894;SDS011;11112;51.270;7.224;2022-11-09T08:45:42;6.78;;;1.52;;
21894;SDS011;11112;51.270;7.224;2022-11-09T08:48:09;9.00;;;1.80;;
21894;SDS011;11112;51.270;7.224;2022-11-09T08:50:40;4.80;;;1.30;;
21894;SDS011;11112;51.270;7.224;2022-11-09T08:53:08;5.10;;;1.35;;
21894;SDS011;11112;51.270;7.224;2022-11-09T08:55:35;5.38;;;1.40;;
21894;SDS011;11112;51.270;7.224;2022-11-09T08:58:03;8.43;;;1.58;;
21894;SDS011;11112;51.270;7.224;2022-11-09T09:00:31;3.25;;;1.02;;
21894;SDS011;11112;51.270;7.224;2022-11-09T09:03:02;4.53;;;1.25;;
21894;SDS011;11112;51.270;7.224;2022-11-09T09:05:30;4.47;;;1.08;;
21894;SDS011;11112;51.270;7.224;2022-11-09T09:07:59;5.10;;;1.20;;
21894;SDS011;11112;51.270;7.224;2022-11-09T09:10:27;5.32;;;1.23;;
21894;SDS011;11112;51.270;7.224;2022-11-09T09:12:56;4.55;;;1.30;;
21894;SDS011;11112;51.270;7.224;2022-11-09T09:15:24;5.03;;;1.40;;
21894;SDS011;11112;51.270;7.224;2022-11-09T09:17:51;4.50;;;1.33;;
21894;SDS011;11112;51.270;7.224;2022-11-09T09:20:21;5.20;;;1.30;;
21894;SDS011;11112;51.270;7.224;2022-11-09T09:22:49;6.18;;;1.10;;
21894;SDS011;11112;51.270;7.224;2022-11-09T09:25:16;5.35;;;1.20;;
21894;SDS011;11112;51.270;7.224;2022-11-09T09:27:44;6.93;;;1.80;;
21894;SDS011;11112;51.270;7.224;2022-11-09T09:30:12;5.88;;;1.30;;
21894;SDS011;11112;51.270;7.224;2022-11-09T09:32:39;8.25;;;1.30;;
21894;SDS011;11112;51.270;7.224;2022-11-09T09:35:07;6.55;;;1.80;;
21894;SDS011;11112;51.270;7.224;2022-11-09T09:37:38;7.57;;;1.33;;
21894;SDS011;11112;51.270;7.224;2022-11-09T09:40:09;6.22;;;1.35;;
21894;SDS011;11112;51.270;7.224;2022-11-09T09:42:50;5.43;;;1.42;;
21894;SDS011;11112;51.270;7.224;2022-11-09T09:45:20;6.50;;;1.30;;
21894;SDS011;11112;51.270;7.224;2022-11-09T09:47:52;5.88;;;1.40;;
21894;SDS011;11112;51.270;7.224;2022-11-09T09:50:25;6.40;;;1.52;;
21894;SDS011;11112;51.270;7.224;2022-11-09T09:52:57;4.88;;;1.65;;
21894;SDS011;11112;51.270;7.224;2022-11-09T09:55:34;6.22;;;1.75;;
21894;SDS011;11112;51.270;7.224;2022-11-09T09:58:06;6.75;;;1.40;;
21894;SDS011;11112;51.270;7.224;2022-11-09T10:00:39;6.00;;;1.65;;
21894;SDS011;11112;51.270;7.224;2022-11-09T10:03:10;6.28;;;1.70;;
21894;SDS011;11112;51.270;7.224;2022-11-09T10:05:45;6.38;;;1.83;;
21894;SDS011;11112;51.270;7.224;2022-11-09T10:08:27;7.25;;;1.90;;
21894;SDS011;11112;51.270;7.224;2022-11-09T10:11:13;5.95;;;1.70;;
21894;SDS011;11112;51.270;7.224;2022-11-09T10:14:00;7.43;;;1.73;;
21894;SDS011;11112;51.270;7.224;2022-11-09T10:17:23;4.90;;;1.58;;
21894;SDS011;11112;51.270;7.224;2022-11-09T10:20:12;4.97;;;1.50;;
21894;SDS011;11112;51.270;7.224;2022-11-09T10:26:10;4.07;;;1.40;;
21894;SDS011;11112;51.270;7.224;2022-11-09T10:28:45;3.70;;;0.90;;
21894;SDS011;11112;51.270;7.224;2022-11-09T10:31:19;4.10;;;1.10;;
21894;SDS011;11112;51.270;7.224;2022-11-09T10:33:52;4.13;;;1.10;;
21894;SDS011;11112;51.270;7.224;2022-11-09T10:36:27;4.68;;;1.10;;
21894;SDS011;11112;51.270;7.224;2022-11-09T10:39:08;6.20;;;1.10;;
21894;SDS011;11112;51.270;7.224;2022-11-09T10:41:43;4.28;;;0.80;;
21894;SDS011;11112;51.270;7.224;2022-11-09T10:44:12;4.10;;;0.70;;
21894;SDS011;11112;51.270;7.224;2022-11-09T10:47:00;3.53;;;0.80;;
21894;SDS011;11112;51.270;7.224;2022-11-09T10:49:33;3.47;;;1.00;;
21894;SDS011;11112;51.270;7.224;2022-11-09T10:52:03;5.07;;;0.80;;
21894;SDS011;11112;51.270;7.224;2022-11-09T10:54:50;4.63;;;1.10;;
21894;SDS011;11112;51.270;7.224;2022-11-09T10:57:18;5.40;;;1.10;;
21894;SDS011;11112;51.270;7.224;2022-11-09T10:59:49;5.45;;;0.90;;
21894;SDS011;11112;51.270;7.224;2022-11-09T11:02:39;5.43;;;1.00;;
21894;SDS011;11112;51.270;7.224;2022-11-09T11:05:25;6.32;;;1.40;;
21894;SDS011;11112;51.270;7.224;2022-11-09T11:11:11;4.20;;;0.90;;
21894;SDS011;11112;51.270;7.224;2022-11-09T11:13:50;4.35;;;0.80;;
21894;SDS011;11112;51.270;7.224;2022-11-09T11:16:41;5.93;;;0.95;;
21894;SDS011;11112;51.270;7.224;2022-11-09T11:22:08;3.88;;;0.80;;
21894;SDS011;11112;51.270;7.224;2022-11-09T11:24:49;4.13;;;0.85;;
21894;SDS011;11112;51.270;7.224;2022-11-09T11:27:22;3.60;;;0.80;;
21894;SDS011;11112;51.270;7.224;2022-11-09T11:30:00;4.15;;;0.73;;
21894;SDS011;11112;51.270;7.224;2022-11-09T11:32:36;3.78;;;0.90;;
21894;SDS011;11112;51.270;7.224;2022-11-09T11:35:10;7.35;;;1.20;;
21894;SDS011;11112;51.270;7.224;2022-11-09T11:37:46;4.38;;;0.80;;
21894;SDS011;11112;51.270;7.224;2022-11-09T11:40:24;4.13;;;0.85;;
21894;SDS011;11112;51.270;7.224;2022-11-09T11:43:08;3.42;;;0.73;;
21894;SDS011;11112;51.270;7.224;2022-11-09T11:45:55;3.42;;;0.82;;
21894;SDS011;11112;51.270;7.224;2022-11-09T11:48:53;4.60;;;0.82;;
21894;SDS011;11112;51.270;7.224;2022-11-09T11:51:48;3.35;;;1.00;;
21894;SDS011;11112;51.270;7.224;2022-11-09T11:54:29;4.85;;;1.08;;
21894;SDS011;11112;51.270;7.224;2022-11-09T11:57:09;4.68;;;0.80;;
21894;SDS011;11112;51.270;7.224;2022-11-09T11:59:53;5.15;;;0.98;;
21894;SDS011;11112;51.270;7.224;2022-11-09T12:02:48;3.65;;;0.77;;
21894;SDS011;11112;51.270;7.224;2022-11-09T12:05:48;4.40;;;0.90;;
21894;SDS011;11112;51.270;7.224;2022-11-09T12:08:51;3.75;;;0.90;;
21894;SDS011;11112;51.270;7.224;2022-11-09T12:11:37;4.80;;;1.20;;
21894;SDS011;11112;51.270;7.224;2022-11-09T12:14:16;5.75;;;1.02;;
21894;SDS011;11112;51.270;7.224;2022-11-09T12:16:59;5.00;;;1.15;;
21894;SDS011;11112;51.270;7.224;2022-11-09T12:20:20;4.95;;;0.93;;
21894;SDS011;11112;51.270;7.224;2022-11-09T12:23:24;4.90;;;1.20;;
21894;SDS011;11112;51.270;7.224;2022-11-09T12:26:11;7.18;;;1.10;;
21894;SDS011;11112;51.270;7.224;2022-11-09T12:28:53;6.32;;;1.27;;
21894;SDS011;11112;51.270;7.224;2022-11-09T12:31:40;6.32;;;1.20;;
21894;SDS011;11112;51.270;7.224;2022-11-09T12:36:53;5.67;;;1.10;;
21894;SDS011;11112;51.270;7.224;2022-11-09T12:39:26;6.87;;;1.37;;
21894;SDS011;11112;51.270;7.224;2022-11-09T12:42:02;4.63;;;1.30;;
21894;SDS011;11112;51.270;7.224;2022-11-09T12:44:38;5.13;;;1.10;;
21894;SDS011;11112;51.270;7.224;2022-11-09T12:47:13;7.40;;;1.45;;
21894;SDS011;11112;51.270;7.224;2022-11-09T12:49:46;11.45;;;1.42;;
21894;SDS011;11112;51.270;7.224;2022-11-09T12:52:14;6.50;;;1.00;;
21894;SDS011;11112;51.270;7.224;2022-11-09T12:54:45;4.60;;;1.00;;
21894;SDS011;11112;51.270;7.224;2022-11-09T12:57:16;5.60;;;1.02;;
21894;SDS011;11112;51.270;7.224;2022-11-09T12:59:50;4.88;;;1.23;;
21894;SDS011;11112;51.270;7.224;2022-11-09T13:02:23;6.95;;;1.40;;
21894;SDS011;11112;51.270;7.224;2022-11-09T13:04:57;9.32;;;1.60;;
21894;SDS011;11112;51.270;7.224;2022-11-09T13:10:24;5.90;;;0.90;;
21894;SDS011;11112;51.270;7.224;2022-11-09T13:13:14;6.50;;;1.05;;
21894;SDS011;11112;51.270;7.224;2022-11-09T13:19:02;7.07;;;1.20;;
21894;SDS011;11112;51.270;7.224;2022-11-09T13:21:39;6.30;;;1.25;;
21894;SDS011;11112;51.270;7.224;2022-11-09T13:27:35;7.05;;;0.80;;
21894;SDS011;11112;51.270;7.224;2022-11-09T13:33:18;8.63;;;1.33;;
21894;SDS011;11112;51.270;7.224;2022-11-09T13:38:44;9.20;;;1.38;;
21894;SDS011;11112;51.270;7.224;2022-11-09T13:41:49;6.82;;;1.13;;
21894;SDS011;11112;51.270;7.224;2022-11-09T13:44:19;7.57;;;1.30;;
21894;SDS011;11112;51.270;7.224;2022-11-09T13:46:51;6.13;;;1.10;;
21894;SDS011;11112;51.270;7.224;2022-11-09T13:55:28;8.68;;;1.33;;
21894;SDS011;11112;51.270;7.224;2022-11-09T13:57:59;7.57;;;1.30;;
21894;SDS011;11112;51.270;7.224;2022-11-09T14:00:32;8.52;;;1.52;;
21894;SDS011;11112;51.270;7.224;2022-11-09T14:03:00;7.18;;;1.13;;
21894;SDS011;11112;51.270;7.224;2022-11-09T14:05:31;6.88;;;1.38;;
21894;SDS011;11112;51.270;7.224;2022-11-09T14:08:02;9.77;;;1.55;;
21894;SDS011;11112;51.270;7.224;2022-11-09T14:10:42;6.70;;;1.30;;
21894;SDS011;11112;51.270;7.224;2022-11-09T14:13:34;8.60;;;1.13;;
21894;SDS011;11112;51.270;7.224;2022-11-09T14:16:32;8.18;;;1.35;;
21894;SDS011;11112;51.270;7.224;2022-11-09T14:19:12;6.63;;;1.38;;
21894;SDS011;11112;51.270;7.224;2022-11-09T14:21:51;6.43;;;1.10;;
21894;SDS011;11112;51.270;7.224;2022-11-09T14:24:20;7.40;;;1.40;;
21894;SDS011;11112;51.270;7.224;2022-11-09T14:27:02;7.15;;;1.13;;
21894;SDS011;11112;51.270;7.224;2022-11-09T14:29:46;9.57;;;1.30;;
21894;SDS011;11112;51.270;7.224;2022-11-09T14:32:23;5.35;;;1.27;;
21894;SDS011;11112;51.270;7.224;2022-11-09T14:37:55;6.68;;;1.30;;
21894;SDS011;11112;51.270;7.224;2022-11-09T14:40:24;8.38;;;1.67;;
21894;SDS011;11112;51.270;7.224;2022-11-09T14:42:56;9.15;;;1.40;;
21894;SDS011;11112;51.270;7.224;2022-11-09T14:45:26;7.55;;;1.30;;
21894;SDS011;11112;51.270;7.224;2022-11-09T14:47:55;7.28;;;1.42;;
21894;SDS011;11112;51.270;7.224;2022-11-09T14:50:25;6.18;;;1.40;;
21894;SDS011;11112;51.270;7.224;2022-11-09T14:53:12;7.60;;;1.42;;
21894;SDS011;11112;51.270;7.224;2022-11-09T14:56:23;9.55;;;1.40;;
21894;SDS011;11112;51.270;7.224;2022-11-09T14:59:48;12.50;;;1.50;;
21894;SDS011;11112;51.270;7.224;2022-11-09T15:08:15;7.28;;;1.40;;
21894;SDS011;11112;51.270;7.224;2022-11-09T15:10:48;7.05;;;1.42;;
21894;SDS011;11112;51.270;7.224;2022-11-09T15:13:18;6.80;;;1.42;;
21894;SDS011;11112;51.270;7.224;2022-11-09T15:15:56;7.45;;;1.45;;
21894;SDS011;11112;51.270;7.224;2022-11-09T15:18:26;5.78;;;1.20;;
21894;SDS011;11112;51.270;7.224;2022-11-09T15:21:11;9.55;;;1.50;;
21894;SDS011;11112;51.270;7.224;2022-11-09T15:23:43;6.45;;;1.65;;
21894;SDS011;11112;51.270;7.224;2022-11-09T15:26:25;8.15;;;1.60;;
21894;SDS011;11112;51.270;7.224;2022-11-09T15:29:00;11.35;;;1.90;;
21894;SDS011;11112;51.270;7.224;2022-11-09T15:31:29;8.40;;;1.80;;
21894;SDS011;11112;51.270;7.224;2022-11-09T15:33:56;8.55;;;1.77;;
21894;SDS011;11112;51.270;7.224;2022-11-09T15:36:28;6.07;;;1.58;;
21894;SDS011;11112;51.270;7.224;2022-11-09T15:39:11;7.80;;;1.70;;
21894;SDS011;11112;51.270;7.224;2022-11-09T15:41:42;7.63;;;1.20;;
21894;SDS011;11112;51.270;7.224;2022-11-09T15:44:09;6.72;;;1.77;;
21894;SDS011;11112;51.270;7.224;2022-11-09T15:46:42;7.63;;;1.52;;
21894;SDS011;11112;51.270;7.224;2022-11-09T15:49:15;5.88;;;1.38;;
21894;SDS011;11112;51.270;7.224;2022-11-09T15:51:46;5.75;;;1.77;;
21894;SDS011;11112;51.270;7.224;2022-11-09T15:54:15;8.35;;;1.50;;
21894;SDS011;11112;51.270;7.224;2022-11-09T15:56:45;8.20;;;1.70;;
21894;SDS011;11112;51.270;7.224;2022-11-09T15:59:14;8.35;;;1.45;;
21894;SDS011;11112;51.270;7.224;2022-11-09T16:01:49;9.90;;;1.85;;
21894;SDS011;11112;51.270;7.224;2022-11-09T16:04:17;7.40;;;1.40;;